AZU2506 SBDN-SBKP
Flight info
| Callsign | AZU2506 |
|---|---|
| Flight time | N/A |
| Altitude | 15000 |
| Route | TOPUX Z14 ANSOK DCT UTLOT |
| Aircraft | AT76/M-SDFGIRY/S |
Departure
| Time | 2026-04-30 22:55 |
|---|---|
| Airport | Presidente Prudente Airport (SBDN) |
Arrival
| Time | N/A |
|---|---|
| Airport | Viracopos International Airport (SBKP) |
| Time | Latitude | Longitude | Altitude | Speed | Heading |
|---|---|---|---|---|---|
| 2026-04-30 22:20 | -22.17784 | -51.41821 | 1478 ft | 0 kts | 142° |
| 2026-04-30 22:34 | -22.17784 | -51.41822 | 1484 ft | 2 kts | 142° |
| 2026-04-30 22:35 | -22.17753 | -51.41847 | 1483 ft | 3 kts | 142° |
| 2026-04-30 22:36 | -22.17713 | -51.41846 | 1479 ft | 0 kts | 234° |
| 2026-04-30 22:40 | -22.17696 | -51.41821 | 1476 ft | 1 kts | 234° |
| 2026-04-30 22:41 | -22.17693 | -51.41817 | 1476 ft | 0 kts | 234° |
| 2026-04-30 22:41 | -22.17691 | -51.41813 | 1476 ft | 0 kts | 234° |
| 2026-04-30 22:42 | -22.17702 | -51.41828 | 1477 ft | 1 kts | 227° |
| 2026-04-30 22:43 | -22.17721 | -51.41979 | 1480 ft | 14 kts | 272° |
| 2026-04-30 22:43 | -22.17700 | -51.42173 | 1473 ft | 14 kts | 278° |
| 2026-04-30 22:44 | -22.17666 | -51.42408 | 1468 ft | 16 kts | 280° |
| 2026-04-30 22:45 | -22.17592 | -51.42937 | 1442 ft | 19 kts | 278° |
| 2026-04-30 22:45 | -22.17550 | -51.43231 | 1428 ft | 20 kts | 279° |
| 2026-04-30 22:46 | -22.17517 | -51.43395 | 1420 ft | 10 kts | 309° |
| 2026-04-30 22:47 | -22.17462 | -51.43429 | 1420 ft | 0 kts | 339° |
| 2026-04-30 22:53 | -22.17415 | -51.43449 | 1419 ft | 7 kts | 341° |
| 2026-04-30 22:53 | -22.17374 | -51.43431 | 1421 ft | 3 kts | 76° |
| 2026-04-30 22:53 | -22.17387 | -51.43290 | 1430 ft | 44 kts | 100° |
| 2026-04-30 22:54 | -22.17572 | -51.41925 | 1476 ft | 133 kts | 95° |
| 2026-04-30 22:55 | -22.17911 | -51.38694 | 2603 ft | 152 kts | 96° |
| 2026-04-30 22:55 | -22.18272 | -51.36385 | 3162 ft | 158 kts | 101° |
| 2026-04-30 22:56 | -22.18700 | -51.33983 | 3748 ft | 166 kts | 99° |
| 2026-04-30 22:56 | -22.19222 | -51.29969 | 4459 ft | 189 kts | 95° |
| 2026-04-30 22:57 | -22.19449 | -51.27306 | 5095 ft | 189 kts | 95° |
| 2026-04-30 22:57 | -22.19707 | -51.24483 | 5719 ft | 190 kts | 96° |
| 2026-04-30 22:58 | -22.19937 | -51.22131 | 6196 ft | 191 kts | 96° |
| 2026-04-30 22:59 | -22.20376 | -51.17389 | 7041 ft | 193 kts | 95° |
| 2026-04-30 22:59 | -22.20806 | -51.13047 | 7836 ft | 195 kts | 96° |